Terminal Aerodrome Forecast
Issued by NWS La Crosse, WI

Home | Current Version | Previous Version | Text Only | Print | Product List | Glossary On
Versions: 1 2 3 4 5 6 7 8 9 10 11 12 13 14 15 16 17 18 19 20 21 22 23 24 25 26 27 28 29 30 31 32 33 34 35 36 37 38 39 40
000
FTUS43 KARX 241917 AAA
TAFRST
TAF AMD
KRST 241917Z 2419/2518 03010KT P6SM BKN035
     FM250200 06005KT P6SM SCT050
     FM250800 11004KT 4SM BR FEW015
      TEMPO 2509/2513 1SM BR BKN003
     FM251330 14008KT P6SM SCT020=

USA.gov is the U.S. government's official web portal to all federal, state and local government web resources and services.